sensor_id;sensor_type;location;lat;lon;timestamp;P1;durP1;ratioP1;P2;durP2;ratioP2
27706;SDS011;36332;51.384;0.040;2024-02-16T00:01:55;9.45;;;4.57;;
27706;SDS011;36332;51.384;0.040;2024-02-16T00:04:23;12.48;;;6.28;;
27706;SDS011;36332;51.384;0.040;2024-02-16T00:06:53;15.25;;;5.43;;
27706;SDS011;36332;51.384;0.040;2024-02-16T00:09:21;13.40;;;6.05;;
27706;SDS011;36332;51.384;0.040;2024-02-16T00:11:50;14.90;;;5.38;;
27706;SDS011;36332;51.384;0.040;2024-02-16T00:14:19;13.63;;;6.05;;
27706;SDS011;36332;51.384;0.040;2024-02-16T00:16:48;7.55;;;5.43;;
27706;SDS011;36332;51.384;0.040;2024-02-16T00:19:17;14.60;;;5.85;;
27706;SDS011;36332;51.384;0.040;2024-02-16T00:21:45;10.38;;;5.20;;
27706;SDS011;36332;51.384;0.040;2024-02-16T00:24:13;11.50;;;5.57;;
27706;SDS011;36332;51.384;0.040;2024-02-16T00:26:42;11.95;;;5.47;;
27706;SDS011;36332;51.384;0.040;2024-02-16T00:29:12;8.70;;;5.38;;
27706;SDS011;36332;51.384;0.040;2024-02-16T00:31:41;11.70;;;5.30;;
27706;SDS011;36332;51.384;0.040;2024-02-16T00:34:10;9.15;;;5.18;;
27706;SDS011;36332;51.384;0.040;2024-02-16T00:36:39;11.93;;;5.10;;
27706;SDS011;36332;51.384;0.040;2024-02-16T00:39:08;11.23;;;5.28;;
27706;SDS011;36332;51.384;0.040;2024-02-16T00:41:37;15.93;;;5.60;;
27706;SDS011;36332;51.384;0.040;2024-02-16T00:44:05;14.98;;;5.93;;
27706;SDS011;36332;51.384;0.040;2024-02-16T00:46:35;9.82;;;4.45;;
27706;SDS011;36332;51.384;0.040;2024-02-16T00:49:04;11.40;;;5.57;;
27706;SDS011;36332;51.384;0.040;2024-02-16T00:51:33;9.32;;;5.60;;
27706;SDS011;36332;51.384;0.040;2024-02-16T00:54:02;12.63;;;5.80;;
27706;SDS011;36332;51.384;0.040;2024-02-16T00:56:31;11.70;;;5.53;;
27706;SDS011;36332;51.384;0.040;2024-02-16T00:59:00;12.15;;;5.55;;
27706;SDS011;36332;51.384;0.040;2024-02-16T01:01:28;7.53;;;5.35;;
27706;SDS011;36332;51.384;0.040;2024-02-16T01:03:57;9.82;;;4.85;;
27706;SDS011;36332;51.384;0.040;2024-02-16T01:06:26;12.50;;;5.03;;
27706;SDS011;36332;51.384;0.040;2024-02-16T01:08:55;13.18;;;5.47;;
27706;SDS011;36332;51.384;0.040;2024-02-16T01:11:23;9.90;;;5.22;;
27706;SDS011;36332;51.384;0.040;2024-02-16T01:13:52;14.20;;;6.22;;
27706;SDS011;36332;51.384;0.040;2024-02-16T01:16:21;10.30;;;5.97;;
27706;SDS011;36332;51.384;0.040;2024-02-16T01:18:49;12.25;;;6.43;;
27706;SDS011;36332;51.384;0.040;2024-02-16T01:21:17;12.43;;;5.93;;
27706;SDS011;36332;51.384;0.040;2024-02-16T01:23:45;12.45;;;6.15;;
27706;SDS011;36332;51.384;0.040;2024-02-16T01:26:13;18.05;;;6.70;;
27706;SDS011;36332;51.384;0.040;2024-02-16T01:28:41;9.27;;;5.35;;
27706;SDS011;36332;51.384;0.040;2024-02-16T01:31:09;18.23;;;6.30;;
27706;SDS011;36332;51.384;0.040;2024-02-16T01:33:38;12.45;;;5.85;;
27706;SDS011;36332;51.384;0.040;2024-02-16T01:36:07;13.70;;;5.50;;
27706;SDS011;36332;51.384;0.040;2024-02-16T01:38:35;15.60;;;6.13;;
27706;SDS011;36332;51.384;0.040;2024-02-16T01:41:03;9.60;;;6.15;;
27706;SDS011;36332;51.384;0.040;2024-02-16T01:43:32;11.93;;;6.82;;
27706;SDS011;36332;51.384;0.040;2024-02-16T01:46:01;13.40;;;7.60;;
27706;SDS011;36332;51.384;0.040;2024-02-16T01:48:30;16.98;;;8.38;;
27706;SDS011;36332;51.384;0.040;2024-02-16T01:50:58;10.20;;;6.85;;
27706;SDS011;36332;51.384;0.040;2024-02-16T01:53:29;16.75;;;8.02;;
27706;SDS011;36332;51.384;0.040;2024-02-16T01:55:58;15.65;;;7.82;;
27706;SDS011;36332;51.384;0.040;2024-02-16T01:58:26;16.20;;;7.05;;
27706;SDS011;36332;51.384;0.040;2024-02-16T02:00:55;16.10;;;7.35;;
27706;SDS011;36332;51.384;0.040;2024-02-16T02:03:23;22.13;;;8.20;;
27706;SDS011;36332;51.384;0.040;2024-02-16T02:05:52;13.77;;;7.22;;
27706;SDS011;36332;51.384;0.040;2024-02-16T02:08:25;13.95;;;8.20;;
27706;SDS011;36332;51.384;0.040;2024-02-16T02:10:53;19.83;;;7.60;;
27706;SDS011;36332;51.384;0.040;2024-02-16T02:13:22;20.90;;;8.68;;
27706;SDS011;36332;51.384;0.040;2024-02-16T02:15:50;20.15;;;8.18;;
27706;SDS011;36332;51.384;0.040;2024-02-16T02:18:18;15.38;;;8.13;;
27706;SDS011;36332;51.384;0.040;2024-02-16T02:20:46;16.10;;;8.57;;
27706;SDS011;36332;51.384;0.040;2024-02-16T02:23:14;19.23;;;8.35;;
27706;SDS011;36332;51.384;0.040;2024-02-16T02:25:43;27.50;;;8.73;;
27706;SDS011;36332;51.384;0.040;2024-02-16T02:28:13;15.77;;;8.23;;
27706;SDS011;36332;51.384;0.040;2024-02-16T02:30:44;18.00;;;7.97;;
27706;SDS011;36332;51.384;0.040;2024-02-16T02:36:25;22.30;;;8.82;;
27706;SDS011;36332;51.384;0.040;2024-02-16T02:38:55;17.45;;;9.48;;
27706;SDS011;36332;51.384;0.040;2024-02-16T02:41:25;20.52;;;8.48;;
27706;SDS011;36332;51.384;0.040;2024-02-16T02:43:54;21.60;;;8.57;;
27706;SDS011;36332;51.384;0.040;2024-02-16T02:46:24;20.23;;;9.68;;
27706;SDS011;36332;51.384;0.040;2024-02-16T02:48:59;25.05;;;10.07;;
27706;SDS011;36332;51.384;0.040;2024-02-16T02:51:31;24.85;;;9.73;;
27706;SDS011;36332;51.384;0.040;2024-02-16T02:53:59;17.65;;;9.70;;
27706;SDS011;36332;51.384;0.040;2024-02-16T02:56:29;20.40;;;9.52;;
27706;SDS011;36332;51.384;0.040;2024-02-16T02:59:01;13.52;;;9.13;;
27706;SDS011;36332;51.384;0.040;2024-02-16T03:01:35;22.00;;;9.13;;
27706;SDS011;36332;51.384;0.040;2024-02-16T03:04:13;22.45;;;9.95;;
27706;SDS011;36332;51.384;0.040;2024-02-16T03:06:44;23.40;;;11.23;;
27706;SDS011;36332;51.384;0.040;2024-02-16T03:09:16;14.32;;;8.52;;
27706;SDS011;36332;51.384;0.040;2024-02-16T03:11:45;17.35;;;9.68;;
27706;SDS011;36332;51.384;0.040;2024-02-16T03:14:14;14.18;;;9.13;;
27706;SDS011;36332;51.384;0.040;2024-02-16T03:16:43;18.77;;;8.68;;
27706;SDS011;36332;51.384;0.040;2024-02-16T03:19:13;16.48;;;9.00;;
27706;SDS011;36332;51.384;0.040;2024-02-16T03:21:46;14.15;;;8.60;;
27706;SDS011;36332;51.384;0.040;2024-02-16T03:24:17;15.95;;;9.27;;
27706;SDS011;36332;51.384;0.040;2024-02-16T03:26:47;12.60;;;8.10;;
27706;SDS011;36332;51.384;0.040;2024-02-16T03:29:18;21.35;;;8.68;;
27706;SDS011;36332;51.384;0.040;2024-02-16T03:31:47;17.85;;;10.13;;
27706;SDS011;36332;51.384;0.040;2024-02-16T03:34:19;13.30;;;8.27;;
27706;SDS011;36332;51.384;0.040;2024-02-16T03:36:50;16.65;;;9.80;;
27706;SDS011;36332;51.384;0.040;2024-02-16T03:39:21;20.10;;;9.68;;
27706;SDS011;36332;51.384;0.040;2024-02-16T03:41:56;16.05;;;9.32;;
27706;SDS011;36332;51.384;0.040;2024-02-16T03:44:33;18.80;;;8.25;;
27706;SDS011;36332;51.384;0.040;2024-02-16T03:47:02;12.85;;;8.35;;
27706;SDS011;36332;51.384;0.040;2024-02-16T03:49:37;16.55;;;7.90;;
27706;SDS011;36332;51.384;0.040;2024-02-16T03:52:08;19.92;;;8.52;;
27706;SDS011;36332;51.384;0.040;2024-02-16T03:54:42;15.48;;;8.23;;
27706;SDS011;36332;51.384;0.040;2024-02-16T03:57:25;14.52;;;7.90;;
27706;SDS011;36332;51.384;0.040;2024-02-16T03:59:59;17.25;;;8.15;;
27706;SDS011;36332;51.384;0.040;2024-02-16T04:02:48;14.88;;;7.85;;
27706;SDS011;36332;51.384;0.040;2024-02-16T04:05:18;16.60;;;8.63;;
27706;SDS011;36332;51.384;0.040;2024-02-16T04:07:52;11.75;;;8.45;;
27706;SDS011;36332;51.384;0.040;2024-02-16T04:10:25;12.65;;;7.43;;
27706;SDS011;36332;51.384;0.040;2024-02-16T04:13:00;16.38;;;8.40;;
27706;SDS011;36332;51.384;0.040;2024-02-16T04:15:39;12.25;;;7.72;;
27706;SDS011;36332;51.384;0.040;2024-02-16T04:18:18;15.15;;;8.25;;
27706;SDS011;36332;51.384;0.040;2024-02-16T04:20:54;15.63;;;8.63;;
27706;SDS011;36332;51.384;0.040;2024-02-16T04:23:33;14.27;;;9.30;;
27706;SDS011;36332;51.384;0.040;2024-02-16T04:26:06;16.70;;;9.00;;
27706;SDS011;36332;51.384;0.040;2024-02-16T04:28:39;15.73;;;9.32;;
27706;SDS011;36332;51.384;0.040;2024-02-16T04:31:10;15.32;;;9.48;;
27706;SDS011;36332;51.384;0.040;2024-02-16T04:33:40;18.98;;;10.50;;
27706;SDS011;36332;51.384;0.040;2024-02-16T04:36:13;17.98;;;10.57;;
27706;SDS011;36332;51.384;0.040;2024-02-16T04:38:47;18.10;;;11.13;;
27706;SDS011;36332;51.384;0.040;2024-02-16T04:41:20;16.45;;;11.13;;
27706;SDS011;36332;51.384;0.040;2024-02-16T04:43:49;16.73;;;11.27;;
27706;SDS011;36332;51.384;0.040;2024-02-16T04:46:19;24.55;;;12.13;;
27706;SDS011;36332;51.384;0.040;2024-02-16T04:48:50;15.57;;;10.23;;
27706;SDS011;36332;51.384;0.040;2024-02-16T04:51:19;18.27;;;10.50;;
27706;SDS011;36332;51.384;0.040;2024-02-16T04:53:51;20.85;;;11.88;;
27706;SDS011;36332;51.384;0.040;2024-02-16T04:56:25;19.30;;;10.88;;
27706;SDS011;36332;51.384;0.040;2024-02-16T04:58:58;15.93;;;10.10;;
27706;SDS011;36332;51.384;0.040;2024-02-16T05:01:31;30.48;;;11.15;;
27706;SDS011;36332;51.384;0.040;2024-02-16T05:04:00;14.38;;;10.15;;
27706;SDS011;36332;51.384;0.040;2024-02-16T05:06:32;19.48;;;11.45;;
27706;SDS011;36332;51.384;0.040;2024-02-16T05:09:01;18.48;;;10.18;;
27706;SDS011;36332;51.384;0.040;2024-02-16T05:11:32;14.50;;;9.43;;
27706;SDS011;36332;51.384;0.040;2024-02-16T05:14:01;15.18;;;9.43;;
27706;SDS011;36332;51.384;0.040;2024-02-16T05:16:33;14.82;;;9.30;;
27706;SDS011;36332;51.384;0.040;2024-02-16T05:19:00;16.35;;;9.93;;
27706;SDS011;36332;51.384;0.040;2024-02-16T05:21:29;12.68;;;9.30;;
27706;SDS011;36332;51.384;0.040;2024-02-16T05:23:56;14.55;;;9.35;;
27706;SDS011;36332;51.384;0.040;2024-02-16T05:26:24;13.43;;;8.38;;
27706;SDS011;36332;51.384;0.040;2024-02-16T05:28:51;13.88;;;9.30;;
27706;SDS011;36332;51.384;0.040;2024-02-16T05:31:19;9.25;;;7.45;;
27706;SDS011;36332;51.384;0.040;2024-02-16T05:33:47;13.65;;;7.22;;
27706;SDS011;36332;51.384;0.040;2024-02-16T05:36:20;12.43;;;8.70;;
27706;SDS011;36332;51.384;0.040;2024-02-16T05:38:52;14.40;;;7.97;;
27706;SDS011;36332;51.384;0.040;2024-02-16T05:41:22;15.07;;;8.15;;
27706;SDS011;36332;51.384;0.040;2024-02-16T05:43:51;19.73;;;9.00;;
27706;SDS011;36332;51.384;0.040;2024-02-16T05:46:18;13.52;;;7.68;;
27706;SDS011;36332;51.384;0.040;2024-02-16T05:48:46;14.35;;;8.48;;
27706;SDS011;36332;51.384;0.040;2024-02-16T05:51:14;13.50;;;8.30;;
27706;SDS011;36332;51.384;0.040;2024-02-16T05:53:42;14.45;;;8.68;;
27706;SDS011;36332;51.384;0.040;2024-02-16T05:56:09;12.38;;;8.57;;
27706;SDS011;36332;51.384;0.040;2024-02-16T05:58:37;13.98;;;8.70;;
27706;SDS011;36332;51.384;0.040;2024-02-16T06:01:05;15.13;;;8.90;;
27706;SDS011;36332;51.384;0.040;2024-02-16T06:03:32;15.70;;;9.00;;
27706;SDS011;36332;51.384;0.040;2024-02-16T06:06:02;13.98;;;8.93;;
27706;SDS011;36332;51.384;0.040;2024-02-16T06:08:32;15.18;;;8.38;;
27706;SDS011;36332;51.384;0.040;2024-02-16T06:11:01;11.60;;;8.55;;
27706;SDS011;36332;51.384;0.040;2024-02-16T06:13:29;7.20;;;6.00;;
27706;SDS011;36332;51.384;0.040;2024-02-16T06:15:56;11.98;;;6.57;;
27706;SDS011;36332;51.384;0.040;2024-02-16T06:18:24;9.35;;;6.35;;
27706;SDS011;36332;51.384;0.040;2024-02-16T06:20:52;6.95;;;4.97;;
27706;SDS011;36332;51.384;0.040;2024-02-16T06:23:19;6.05;;;4.90;;
27706;SDS011;36332;51.384;0.040;2024-02-16T06:25:47;10.65;;;4.93;;
27706;SDS011;36332;51.384;0.040;2024-02-16T06:28:16;6.75;;;4.90;;
27706;SDS011;36332;51.384;0.040;2024-02-16T06:30:44;9.45;;;4.93;;
27706;SDS011;36332;51.384;0.040;2024-02-16T06:33:11;9.70;;;4.47;;
27706;SDS011;36332;51.384;0.040;2024-02-16T06:35:39;6.13;;;3.78;;
27706;SDS011;36332;51.384;0.040;2024-02-16T06:38:06;5.93;;;4.22;;
27706;SDS011;36332;51.384;0.040;2024-02-16T06:40:34;7.10;;;4.22;;
27706;SDS011;36332;51.384;0.040;2024-02-16T06:43:01;4.72;;;4.10;;
27706;SDS011;36332;51.384;0.040;2024-02-16T06:45:32;8.18;;;4.38;;
27706;SDS011;36332;51.384;0.040;2024-02-16T06:48:00;4.75;;;3.53;;
27706;SDS011;36332;51.384;0.040;2024-02-16T06:50:27;6.28;;;3.70;;
27706;SDS011;36332;51.384;0.040;2024-02-16T06:52:57;5.10;;;3.35;;
27706;SDS011;36332;51.384;0.040;2024-02-16T06:55:24;4.63;;;3.33;;
27706;SDS011;36332;51.384;0.040;2024-02-16T06:57:52;5.65;;;3.65;;
27706;SDS011;36332;51.384;0.040;2024-02-16T07:00:19;5.05;;;3.10;;
27706;SDS011;36332;51.384;0.040;2024-02-16T07:02:49;4.30;;;3.25;;
27706;SDS011;36332;51.384;0.040;2024-02-16T07:05:16;6.65;;;3.00;;
27706;SDS011;36332;51.384;0.040;2024-02-16T07:07:45;5.43;;;3.60;;
27706;SDS011;36332;51.384;0.040;2024-02-16T07:10:13;5.18;;;3.67;;
27706;SDS011;36332;51.384;0.040;2024-02-16T07:12:41;7.05;;;3.20;;
27706;SDS011;36332;51.384;0.040;2024-02-16T07:15:09;5.70;;;3.75;;
27706;SDS011;36332;51.384;0.040;2024-02-16T07:17:37;6.72;;;3.60;;
27706;SDS011;36332;51.384;0.040;2024-02-16T07:20:05;6.63;;;2.70;;
27706;SDS011;36332;51.384;0.040;2024-02-16T07:22:34;4.97;;;2.75;;
27706;SDS011;36332;51.384;0.040;2024-02-16T07:25:01;3.85;;;2.88;;
27706;SDS011;36332;51.384;0.040;2024-02-16T07:27:31;9.70;;;3.85;;
27706;SDS011;36332;51.384;0.040;2024-02-16T07:29:59;5.45;;;3.03;;
27706;SDS011;36332;51.384;0.040;2024-02-16T07:32:26;4.75;;;3.15;;
27706;SDS011;36332;51.384;0.040;2024-02-16T07:34:54;3.92;;;2.85;;
27706;SDS011;36332;51.384;0.040;2024-02-16T07:37:21;4.43;;;2.70;;
27706;SDS011;36332;51.384;0.040;2024-02-16T07:39:50;3.38;;;2.03;;
27706;SDS011;36332;51.384;0.040;2024-02-16T07:42:18;4.60;;;2.55;;
27706;SDS011;36332;51.384;0.040;2024-02-16T07:44:45;3.30;;;1.98;;
27706;SDS011;36332;51.384;0.040;2024-02-16T07:47:13;4.28;;;2.35;;
27706;SDS011;36332;51.384;0.040;2024-02-16T07:49:40;7.05;;;3.42;;
27706;SDS011;36332;51.384;0.040;2024-02-16T07:52:08;3.70;;;2.75;;
27706;SDS011;36332;51.384;0.040;2024-02-16T07:54:37;4.22;;;2.40;;
27706;SDS011;36332;51.384;0.040;2024-02-16T07:57:05;7.40;;;3.28;;
27706;SDS011;36332;51.384;0.040;2024-02-16T07:59:32;6.68;;;2.70;;
27706;SDS011;36332;51.384;0.040;2024-02-16T08:02:00;10.60;;;3.00;;
27706;SDS011;36332;51.384;0.040;2024-02-16T08:04:30;8.18;;;3.75;;
27706;SDS011;36332;51.384;0.040;2024-02-16T08:06:57;8.60;;;2.97;;
27706;SDS011;36332;51.384;0.040;2024-02-16T08:09:28;8.13;;;3.08;;
27706;SDS011;36332;51.384;0.040;2024-02-16T08:11:56;6.43;;;3.28;;
27706;SDS011;36332;51.384;0.040;2024-02-16T08:14:24;9.20;;;3.40;;
27706;SDS011;36332;51.384;0.040;2024-02-16T08:16:51;6.30;;;3.22;;
27706;SDS011;36332;51.384;0.040;2024-02-16T08:19:34;11.82;;;4.18;;
27706;SDS011;36332;51.384;0.040;2024-02-16T08:22:04;7.88;;;3.70;;
27706;SDS011;36332;51.384;0.040;2024-02-16T08:24:35;8.07;;;3.50;;
27706;SDS011;36332;51.384;0.040;2024-02-16T08:27:03;16.42;;;4.35;;
27706;SDS011;36332;51.384;0.040;2024-02-16T08:29:31;11.32;;;4.35;;
27706;SDS011;36332;51.384;0.040;2024-02-16T08:32:00;13.60;;;4.75;;
27706;SDS011;36332;51.384;0.040;2024-02-16T08:34:27;13.40;;;5.22;;
27706;SDS011;36332;51.384;0.040;2024-02-16T08:36:55;14.85;;;4.88;;
27706;SDS011;36332;51.384;0.040;2024-02-16T08:39:22;15.23;;;5.65;;
27706;SDS011;36332;51.384;0.040;2024-02-16T08:41:52;18.58;;;5.30;;
27706;SDS011;36332;51.384;0.040;2024-02-16T08:44:20;16.63;;;5.78;;
27706;SDS011;36332;51.384;0.040;2024-02-16T08:46:47;11.40;;;6.22;;
27706;SDS011;36332;51.384;0.040;2024-02-16T08:49:16;20.05;;;5.20;;
27706;SDS011;36332;51.384;0.040;2024-02-16T08:51:44;14.63;;;5.07;;
27706;SDS011;36332;51.384;0.040;2024-02-16T08:54:11;18.85;;;5.15;;
27706;SDS011;36332;51.384;0.040;2024-02-16T08:56:39;14.57;;;5.57;;
27706;SDS011;36332;51.384;0.040;2024-02-16T08:59:07;15.68;;;5.45;;
27706;SDS011;36332;51.384;0.040;2024-02-16T09:01:35;19.85;;;6.65;;
27706;SDS011;36332;51.384;0.040;2024-02-16T09:04:05;24.05;;;6.20;;
27706;SDS011;36332;51.384;0.040;2024-02-16T09:06:34;19.60;;;5.40;;
27706;SDS011;36332;51.384;0.040;2024-02-16T09:09:06;13.20;;;5.15;;
27706;SDS011;36332;51.384;0.040;2024-02-16T09:11:34;15.90;;;5.35;;
27706;SDS011;36332;51.384;0.040;2024-02-16T09:14:04;21.10;;;6.13;;
27706;SDS011;36332;51.384;0.040;2024-02-16T09:16:31;16.45;;;5.70;;
27706;SDS011;36332;51.384;0.040;2024-02-16T09:18:59;14.80;;;6.07;;
27706;SDS011;36332;51.384;0.040;2024-02-16T09:21:27;21.60;;;6.25;;
27706;SDS011;36332;51.384;0.040;2024-02-16T09:23:57;15.05;;;5.82;;
27706;SDS011;36332;51.384;0.040;2024-02-16T09:26:29;17.63;;;5.68;;
27706;SDS011;36332;51.384;0.040;2024-02-16T09:29:01;13.40;;;5.03;;
27706;SDS011;36332;51.384;0.040;2024-02-16T09:31:29;19.45;;;5.60;;
27706;SDS011;36332;51.384;0.040;2024-02-16T09:33:57;20.63;;;6.20;;
27706;SDS011;36332;51.384;0.040;2024-02-16T09:36:25;20.20;;;5.35;;
27706;SDS011;36332;51.384;0.040;2024-02-16T09:38:53;23.67;;;5.88;;
27706;SDS011;36332;51.384;0.040;2024-02-16T09:41:20;17.58;;;5.45;;
27706;SDS011;36332;51.384;0.040;2024-02-16T09:43:50;16.23;;;5.45;;
27706;SDS011;36332;51.384;0.040;2024-02-16T09:46:21;22.63;;;5.97;;
27706;SDS011;36332;51.384;0.040;2024-02-16T09:48:51;19.77;;;6.20;;
27706;SDS011;36332;51.384;0.040;2024-02-16T09:51:20;17.77;;;5.55;;
27706;SDS011;36332;51.384;0.040;2024-02-16T09:53:50;19.27;;;6.05;;
27706;SDS011;36332;51.384;0.040;2024-02-16T09:56:25;19.60;;;5.28;;
27706;SDS011;36332;51.384;0.040;2024-02-16T09:58:54;19.35;;;5.60;;
27706;SDS011;36332;51.384;0.040;2024-02-16T10:01:22;18.42;;;5.95;;
27706;SDS011;36332;51.384;0.040;2024-02-16T10:03:52;12.77;;;5.22;;
27706;SDS011;36332;51.384;0.040;2024-02-16T10:06:20;13.05;;;5.53;;
27706;SDS011;36332;51.384;0.040;2024-02-16T10:08:51;23.98;;;5.85;;
27706;SDS011;36332;51.384;0.040;2024-02-16T10:11:27;15.70;;;5.57;;
27706;SDS011;36332;51.384;0.040;2024-02-16T10:13:56;18.27;;;5.75;;
27706;SDS011;36332;51.384;0.040;2024-02-16T10:16:31;19.00;;;5.82;;
27706;SDS011;36332;51.384;0.040;2024-02-16T10:19:05;18.92;;;6.80;;
27706;SDS011;36332;51.384;0.040;2024-02-16T10:21:34;19.73;;;5.95;;
27706;SDS011;36332;51.384;0.040;2024-02-16T10:24:04;12.75;;;4.95;;
27706;SDS011;36332;51.384;0.040;2024-02-16T10:26:38;16.55;;;6.38;;
27706;SDS011;36332;51.384;0.040;2024-02-16T10:29:08;16.67;;;4.90;;
27706;SDS011;36332;51.384;0.040;2024-02-16T10:31:37;16.80;;;4.78;;
27706;SDS011;36332;51.384;0.040;2024-02-16T10:34:06;19.48;;;5.22;;
27706;SDS011;36332;51.384;0.040;2024-02-16T10:36:36;16.23;;;5.50;;
27706;SDS011;36332;51.384;0.040;2024-02-16T10:39:05;14.75;;;4.63;;
27706;SDS011;36332;51.384;0.040;2024-02-16T10:41:36;9.73;;;4.05;;
27706;SDS011;36332;51.384;0.040;2024-02-16T10:44:05;16.90;;;4.57;;
27706;SDS011;36332;51.384;0.040;2024-02-16T10:46:34;20.25;;;4.93;;
27706;SDS011;36332;51.384;0.040;2024-02-16T10:49:03;17.33;;;5.50;;
27706;SDS011;36332;51.384;0.040;2024-02-16T10:54:09;19.92;;;5.03;;
27706;SDS011;36332;51.384;0.040;2024-02-16T10:56:41;17.67;;;5.18;;
27706;SDS011;36332;51.384;0.040;2024-02-16T10:59:09;17.83;;;4.72;;
27706;SDS011;36332;51.384;0.040;2024-02-16T11:01:41;15.75;;;4.50;;
27706;SDS011;36332;51.384;0.040;2024-02-16T11:04:12;13.85;;;4.10;;
27706;SDS011;36332;51.384;0.040;2024-02-16T11:06:53;21.52;;;4.85;;
27706;SDS011;36332;51.384;0.040;2024-02-16T11:09:27;16.13;;;4.35;;
27706;SDS011;36332;51.384;0.040;2024-02-16T11:12:03;9.32;;;3.22;;
27706;SDS011;36332;51.384;0.040;2024-02-16T11:14:35;14.07;;;3.40;;
27706;SDS011;36332;51.384;0.040;2024-02-16T11:17:13;14.15;;;3.25;;
27706;SDS011;36332;51.384;0.040;2024-02-16T11:19:45;12.82;;;3.92;;
27706;SDS011;36332;51.384;0.040;2024-02-16T11:22:18;13.52;;;2.75;;
27706;SDS011;36332;51.384;0.040;2024-02-16T11:24:49;13.20;;;3.97;;
27706;SDS011;36332;51.384;0.040;2024-02-16T11:27:18;15.98;;;3.33;;
27706;SDS011;36332;51.384;0.040;2024-02-16T11:29:47;9.98;;;3.40;;
27706;SDS011;36332;51.384;0.040;2024-02-16T11:32:17;12.68;;;4.07;;
27706;SDS011;36332;51.384;0.040;2024-02-16T11:34:46;9.40;;;3.30;;
27706;SDS011;36332;51.384;0.040;2024-02-16T11:37:15;9.30;;;3.35;;
27706;SDS011;36332;51.384;0.040;2024-02-16T11:39:44;10.88;;;4.32;;
27706;SDS011;36332;51.384;0.040;2024-02-16T11:42:18;10.82;;;4.35;;
27706;SDS011;36332;51.384;0.040;2024-02-16T11:44:53;9.02;;;3.60;;
27706;SDS011;36332;51.384;0.040;2024-02-16T11:47:24;10.40;;;3.78;;
27706;SDS011;36332;51.384;0.040;2024-02-16T11:52:34;8.95;;;3.85;;
27706;SDS011;36332;51.384;0.040;2024-02-16T11:55:02;12.73;;;4.25;;
27706;SDS011;36332;51.384;0.040;2024-02-16T11:57:32;11.23;;;3.15;;
27706;SDS011;36332;51.384;0.040;2024-02-16T12:00:03;15.07;;;3.38;;
27706;SDS011;36332;51.384;0.040;2024-02-16T12:02:35;7.70;;;3.50;;
27706;SDS011;36332;51.384;0.040;2024-02-16T12:05:05;7.72;;;3.45;;
27706;SDS011;36332;51.384;0.040;2024-02-16T12:07:38;8.98;;;3.33;;
27706;SDS011;36332;51.384;0.040;2024-02-16T12:10:10;7.65;;;3.42;;
27706;SDS011;36332;51.384;0.040;2024-02-16T12:12:38;7.95;;;2.78;;
27706;SDS011;36332;51.384;0.040;2024-02-16T12:15:06;13.40;;;3.42;;
27706;SDS011;36332;51.384;0.040;2024-02-16T12:17:37;8.77;;;3.20;;
27706;SDS011;36332;51.384;0.040;2024-02-16T12:20:10;6.80;;;3.20;;
27706;SDS011;36332;51.384;0.040;2024-02-16T12:22:41;5.47;;;2.83;;
27706;SDS011;36332;51.384;0.040;2024-02-16T12:25:08;5.90;;;3.10;;
27706;SDS011;36332;51.384;0.040;2024-02-16T12:27:36;9.90;;;3.30;;
27706;SDS011;36332;51.384;0.040;2024-02-16T12:30:04;9.13;;;2.50;;
27706;SDS011;36332;51.384;0.040;2024-02-16T12:32:32;8.20;;;3.03;;
27706;SDS011;36332;51.384;0.040;2024-02-16T12:35:00;7.97;;;2.33;;
27706;SDS011;36332;51.384;0.040;2024-02-16T12:37:27;6.50;;;2.10;;
27706;SDS011;36332;51.384;0.040;2024-02-16T12:39:55;3.40;;;1.92;;
27706;SDS011;36332;51.384;0.040;2024-02-16T12:42:22;6.70;;;2.50;;
27706;SDS011;36332;51.384;0.040;2024-02-16T12:44:50;7.05;;;2.50;;
27706;SDS011;36332;51.384;0.040;2024-02-16T12:47:18;4.40;;;2.10;;
27706;SDS011;36332;51.384;0.040;2024-02-16T12:49:45;7.18;;;2.15;;
27706;SDS011;36332;51.384;0.040;2024-02-16T12:52:19;5.47;;;2.47;;
27706;SDS011;36332;51.384;0.040;2024-02-16T12:54:49;9.07;;;2.75;;
27706;SDS011;36332;51.384;0.040;2024-02-16T12:57:19;5.38;;;2.58;;
27706;SDS011;36332;51.384;0.040;2024-02-16T12:59:47;9.98;;;2.80;;
27706;SDS011;36332;51.384;0.040;2024-02-16T13:02:14;3.08;;;2.15;;
27706;SDS011;36332;51.384;0.040;2024-02-16T13:04:43;7.85;;;2.42;;
27706;SDS011;36332;51.384;0.040;2024-02-16T13:07:12;6.00;;;2.47;;
27706;SDS011;36332;51.384;0.040;2024-02-16T13:09:40;7.07;;;2.10;;
27706;SDS011;36332;51.384;0.040;2024-02-16T13:12:09;4.72;;;2.22;;
27706;SDS011;36332;51.384;0.040;2024-02-16T13:14:36;5.03;;;2.10;;
27706;SDS011;36332;51.384;0.040;2024-02-16T13:17:04;3.22;;;1.50;;
27706;SDS011;36332;51.384;0.040;2024-02-16T13:19:32;13.55;;;2.20;;
27706;SDS011;36332;51.384;0.040;2024-02-16T13:22:00;7.10;;;2.10;;
27706;SDS011;36332;51.384;0.040;2024-02-16T13:24:27;3.97;;;2.00;;
27706;SDS011;36332;51.384;0.040;2024-02-16T13:26:55;4.50;;;2.47;;
27706;SDS011;36332;51.384;0.040;2024-02-16T13:29:23;9.15;;;2.13;;
27706;SDS011;36332;51.384;0.040;2024-02-16T13:31:51;6.30;;;2.55;;
27706;SDS011;36332;51.384;0.040;2024-02-16T13:34:19;3.70;;;2.00;;
27706;SDS011;36332;51.384;0.040;2024-02-16T13:36:47;9.00;;;2.05;;
27706;SDS011;36332;51.384;0.040;2024-02-16T13:39:15;5.22;;;1.88;;
27706;SDS011;36332;51.384;0.040;2024-02-16T13:41:44;6.78;;;2.22;;
27706;SDS011;36332;51.384;0.040;2024-02-16T13:44:14;6.65;;;1.95;;
27706;SDS011;36332;51.384;0.040;2024-02-16T13:46:42;5.47;;;2.35;;
27706;SDS011;36332;51.384;0.040;2024-02-16T13:49:14;8.20;;;2.92;;
27706;SDS011;36332;51.384;0.040;2024-02-16T13:51:42;9.20;;;2.63;;
27706;SDS011;36332;51.384;0.040;2024-02-16T13:54:09;6.93;;;2.85;;
27706;SDS011;36332;51.384;0.040;2024-02-16T13:56:37;4.45;;;2.97;;
27706;SDS011;36332;51.384;0.040;2024-02-16T13:59:05;7.95;;;2.88;;
27706;SDS011;36332;51.384;0.040;2024-02-16T14:01:34;9.68;;;2.95;;
27706;SDS011;36332;51.384;0.040;2024-02-16T14:04:03;4.57;;;2.63;;
27706;SDS011;36332;51.384;0.040;2024-02-16T14:06:31;6.25;;;2.22;;
27706;SDS011;36332;51.384;0.040;2024-02-16T14:08:59;7.57;;;2.70;;
27706;SDS011;36332;51.384;0.040;2024-02-16T14:11:27;11.50;;;4.80;;
27706;SDS011;36332;51.384;0.040;2024-02-16T14:13:54;9.10;;;3.15;;
27706;SDS011;36332;51.384;0.040;2024-02-16T14:16:22;16.75;;;3.08;;
27706;SDS011;36332;51.384;0.040;2024-02-16T14:18:49;9.52;;;2.63;;
27706;SDS011;36332;51.384;0.040;2024-02-16T14:21:21;4.18;;;1.83;;
27706;SDS011;36332;51.384;0.040;2024-02-16T14:23:52;5.70;;;2.50;;
27706;SDS011;36332;51.384;0.040;2024-02-16T14:26:20;9.07;;;2.80;;
27706;SDS011;36332;51.384;0.040;2024-02-16T14:28:47;8.35;;;2.15;;
27706;SDS011;36332;51.384;0.040;2024-02-16T14:31:15;8.00;;;2.50;;
27706;SDS011;36332;51.384;0.040;2024-02-16T14:33:43;10.43;;;2.58;;
27706;SDS011;36332;51.384;0.040;2024-02-16T14:36:11;8.35;;;2.38;;
27706;SDS011;36332;51.384;0.040;2024-02-16T14:38:39;10.95;;;2.05;;
27706;SDS011;36332;51.384;0.040;2024-02-16T14:41:07;10.07;;;1.98;;
27706;SDS011;36332;51.384;0.040;2024-02-16T14:43:35;6.30;;;1.63;;
27706;SDS011;36332;51.384;0.040;2024-02-16T14:46:02;9.05;;;1.95;;
27706;SDS011;36332;51.384;0.040;2024-02-16T14:48:33;5.68;;;1.65;;
27706;SDS011;36332;51.384;0.040;2024-02-16T14:51:01;9.80;;;1.60;;
27706;SDS011;36332;51.384;0.040;2024-02-16T14:53:31;3.53;;;1.30;;
27706;SDS011;36332;51.384;0.040;2024-02-16T14:56:00;5.97;;;1.30;;
27706;SDS011;36332;51.384;0.040;2024-02-16T14:58:30;7.47;;;1.25;;
27706;SDS011;36332;51.384;0.040;2024-02-16T15:00:58;3.88;;;1.10;;